createdAt,value
2023-01-26T00:00:28.658Z,1017.50
2023-01-26T00:01:28.649Z,1017.44
2023-01-26T00:02:28.728Z,1017.49
2023-01-26T00:03:28.680Z,1017.46
2023-01-26T00:04:28.634Z,1017.51
2023-01-26T00:05:28.635Z,1017.42
2023-01-26T00:06:28.588Z,1017.48
2023-01-26T00:07:28.578Z,1017.46
2023-01-26T00:08:28.570Z,1017.47
2023-01-26T00:09:28.580Z,1017.43
2023-01-26T00:10:28.545Z,1017.36
2023-01-26T00:11:28.565Z,1017.39
2023-01-26T00:12:28.547Z,1017.34
2023-01-26T00:13:28.531Z,1017.35
2023-01-26T00:14:28.515Z,1017.33
2023-01-26T00:15:28.496Z,1017.35
2023-01-26T00:16:28.575Z,1017.33
2023-01-26T00:17:28.463Z,1017.30
2023-01-26T00:18:28.465Z,1017.28
2023-01-26T00:19:28.468Z,1017.29
2023-01-26T00:20:28.434Z,1017.30
2023-01-26T00:21:28.443Z,1017.23
2023-01-26T00:22:28.440Z,1017.22
2023-01-26T00:23:28.402Z,1017.18
2023-01-26T00:24:28.420Z,1017.18
2023-01-26T00:25:28.400Z,1017.16
2023-01-26T00:26:28.375Z,1017.14
2023-01-26T00:27:28.400Z,1017.15
2023-01-26T00:28:28.352Z,1017.12
2023-01-26T00:29:28.381Z,1017.12
2023-01-26T00:30:28.361Z,1017.10
2023-01-26T00:31:28.362Z,1017.17
2023-01-26T00:32:28.298Z,1017.17
2023-01-26T00:33:28.311Z,1017.11
2023-01-26T00:34:28.297Z,1017.12
2023-01-26T00:35:28.291Z,1017.14
2023-01-26T00:36:28.259Z,1017.16
2023-01-26T00:37:28.245Z,1017.15
2023-01-26T00:38:28.252Z,1017.18
2023-01-26T00:39:28.236Z,1017.11
2023-01-26T00:40:28.231Z,1017.10
2023-01-26T00:41:28.220Z,1017.14
2023-01-26T00:42:28.192Z,1017.13
2023-01-26T00:43:28.223Z,1017.12
2023-01-26T00:44:28.178Z,1017.09
2023-01-26T00:45:28.191Z,1017.09
2023-01-26T00:46:28.156Z,1017.10
2023-01-26T00:47:28.250Z,1017.06
2023-01-26T00:48:28.127Z,1017.07
2023-01-26T00:49:28.129Z,1017.06
2023-01-26T00:50:28.115Z,1017.05
2023-01-26T00:51:28.114Z,1017.06
2023-01-26T00:52:28.093Z,1017.04
2023-01-26T00:53:28.079Z,1017.06
2023-01-26T00:54:28.075Z,1017.06
2023-01-26T00:55:28.061Z,1017.03
2023-01-26T00:56:28.328Z,1016.99
2023-01-26T00:57:28.038Z,1017.00
2023-01-26T00:58:28.037Z,1017.01
2023-01-26T00:59:28.046Z,1017.01
2023-01-26T01:00:27.993Z,1017.03
2023-01-26T01:01:27.997Z,1017.01
2023-01-26T01:02:27.988Z,1016.98
2023-01-26T01:03:28.044Z,1017.01
2023-01-26T01:04:27.952Z,1017.02
2023-01-26T01:05:27.962Z,1017.03
2023-01-26T01:06:27.934Z,1016.91
2023-01-26T01:07:27.929Z,1017.01
2023-01-26T01:08:27.916Z,1016.95
2023-01-26T01:09:27.910Z,1016.91
2023-01-26T01:10:27.910Z,1016.94
2023-01-26T01:11:27.887Z,1016.88
2023-01-26T01:12:27.875Z,1016.92
2023-01-26T01:13:27.861Z,1016.93
2023-01-26T01:14:27.855Z,1016.90
2023-01-26T01:15:27.880Z,1016.97
2023-01-26T01:16:27.890Z,1016.88
2023-01-26T01:17:27.828Z,1016.92
2023-01-26T01:18:27.805Z,1016.95
2023-01-26T01:19:27.788Z,1016.91
2023-01-26T01:20:27.775Z,1016.94
2023-01-26T01:21:27.774Z,1016.86
2023-01-26T01:22:27.807Z,1016.92
2023-01-26T01:23:27.752Z,1016.87
2023-01-26T01:24:27.744Z,1016.85
2023-01-26T01:25:27.739Z,1016.89
2023-01-26T01:26:27.731Z,1016.90
2023-01-26T01:27:27.709Z,1016.85
2023-01-26T01:28:27.685Z,1016.81
2023-01-26T01:29:27.670Z,1016.85
2023-01-26T01:30:27.691Z,1016.85
2023-01-26T01:31:27.844Z,1016.84
2023-01-26T01:32:27.662Z,1016.88
2023-01-26T01:33:27.645Z,1016.92
2023-01-26T01:34:27.647Z,1016.85
2023-01-26T01:35:27.604Z,1016.83
2023-01-26T01:36:27.628Z,1016.86
2023-01-26T01:37:27.597Z,1016.80
2023-01-26T01:38:27.576Z,1016.85
2023-01-26T01:39:27.586Z,1016.80
2023-01-26T01:40:27.574Z,1016.82
2023-01-26T01:41:27.581Z,1016.80
2023-01-26T01:42:27.546Z,1016.76
2023-01-26T01:43:27.562Z,1016.73
2023-01-26T01:44:27.508Z,1016.73
2023-01-26T01:45:27.507Z,1016.73
2023-01-26T01:46:27.510Z,1016.73
2023-01-26T01:47:27.501Z,1016.71
2023-01-26T01:48:27.476Z,1016.69
2023-01-26T01:49:27.463Z,1016.71
2023-01-26T01:50:27.490Z,1016.69
2023-01-26T01:51:27.441Z,1016.64
2023-01-26T01:52:27.433Z,1016.60
2023-01-26T01:53:27.432Z,1016.66
2023-01-26T01:54:27.410Z,1016.64
2023-01-26T01:55:27.410Z,1016.59
2023-01-26T01:56:27.411Z,1016.63
2023-01-26T01:57:27.375Z,1016.58
2023-01-26T01:58:27.367Z,1016.56
2023-01-26T01:59:27.349Z,1016.63
2023-01-26T02:00:27.391Z,1016.57
2023-01-26T02:01:27.323Z,1016.56
2023-01-26T02:02:27.326Z,1016.56
2023-01-26T02:03:27.335Z,1016.53
2023-01-26T02:04:27.320Z,1016.55
2023-01-26T02:05:27.290Z,1016.54
2023-01-26T02:06:27.268Z,1016.51
2023-01-26T02:07:27.255Z,1016.48
2023-01-26T02:08:27.265Z,1016.47
2023-01-26T02:09:27.237Z,1016.44
2023-01-26T02:10:27.241Z,1016.42
2023-01-26T02:11:27.217Z,1016.46
2023-01-26T02:12:27.213Z,1016.40
2023-01-26T02:13:27.202Z,1016.39
2023-01-26T02:14:27.188Z,1016.35
2023-01-26T02:15:27.173Z,1016.35
2023-01-26T02:16:27.200Z,1016.36
2023-01-26T02:17:27.156Z,1016.36
2023-01-26T02:18:27.131Z,1016.36
2023-01-26T02:19:27.155Z,1016.34
2023-01-26T02:20:27.108Z,1016.36
2023-01-26T02:21:27.119Z,1016.35
2023-01-26T02:22:27.086Z,1016.35
2023-01-26T02:23:27.089Z,1016.31
2023-01-26T02:24:27.080Z,1016.29
2023-01-26T02:25:27.052Z,1016.27
2023-01-26T02:26:27.053Z,1016.30
2023-01-26T02:27:27.096Z,1016.24
2023-01-26T02:28:27.045Z,1016.24
2023-01-26T02:29:27.033Z,1016.26
2023-01-26T02:30:27.002Z,1016.24
2023-01-26T02:31:27.007Z,1016.19
2023-01-26T02:32:26.978Z,1016.18
2023-01-26T02:33:27.009Z,1016.20
2023-01-26T02:34:26.971Z,1016.15
2023-01-26T02:35:26.965Z,1016.19
2023-01-26T02:36:26.954Z,1016.18
2023-01-26T02:37:26.919Z,1016.16
2023-01-26T02:38:26.923Z,1016.14
2023-01-26T02:39:26.915Z,1016.19
2023-01-26T02:40:26.895Z,1016.14
2023-01-26T02:41:26.892Z,1016.18
2023-01-26T02:42:26.871Z,1016.18
2023-01-26T02:43:26.872Z,1016.13
2023-01-26T02:44:26.866Z,1016.10
2023-01-26T02:45:26.849Z,1016.16
2023-01-26T02:46:26.939Z,1016.08
2023-01-26T02:47:26.817Z,1016.14
2023-01-26T02:48:26.802Z,1016.12
2023-01-26T02:49:26.801Z,1016.12
2023-01-26T02:50:26.810Z,1016.15
2023-01-26T02:51:26.805Z,1016.13
2023-01-26T02:52:26.755Z,1016.15
2023-01-26T02:53:26.775Z,1016.10
2023-01-26T02:54:26.737Z,1016.17
2023-01-26T02:55:26.735Z,1016.16
2023-01-26T02:56:26.727Z,1016.14
2023-01-26T02:57:26.699Z,1016.10
2023-01-26T02:58:26.704Z,1016.06
2023-01-26T02:59:26.692Z,1016.08
2023-01-26T03:00:26.684Z,1016.10
2023-01-26T03:01:26.680Z,1016.11
2023-01-26T03:02:26.647Z,1016.10
2023-01-26T03:03:26.659Z,1016.10
2023-01-26T03:04:26.619Z,1016.14
2023-01-26T03:05:26.630Z,1016.08
2023-01-26T03:06:26.618Z,1016.10
2023-01-26T03:07:26.622Z,1016.12
2023-01-26T03:08:26.594Z,1016.09
2023-01-26T03:09:26.566Z,1016.09
2023-01-26T03:10:26.557Z,1016.06
2023-01-26T03:11:26.579Z,1016.06
2023-01-26T03:12:26.537Z,1016.03
2023-01-26T03:13:26.522Z,1016.01
2023-01-26T03:14:26.510Z,1016.00
2023-01-26T03:15:26.514Z,1016.01
2023-01-26T03:16:26.527Z,1015.98
2023-01-26T03:17:26.490Z,1016.00
2023-01-26T03:18:26.483Z,1016.02
2023-01-26T03:19:26.475Z,1015.98
2023-01-26T03:20:26.445Z,1015.99
2023-01-26T03:21:26.474Z,1015.99
2023-01-26T03:22:26.445Z,1015.95
2023-01-26T03:23:26.470Z,1015.97
2023-01-26T03:24:26.416Z,1015.99
2023-01-26T03:25:26.403Z,1016.06
2023-01-26T03:26:26.378Z,1016.05
2023-01-26T03:27:26.380Z,1016.00
2023-01-26T03:28:26.367Z,1015.97
2023-01-26T03:29:26.368Z,1015.96
2023-01-26T03:30:26.347Z,1015.89
2023-01-26T03:31:26.367Z,1015.93
2023-01-26T03:32:26.326Z,1015.88
2023-01-26T03:33:26.327Z,1015.85
2023-01-26T03:34:26.307Z,1015.89
2023-01-26T03:35:26.295Z,1015.83
2023-01-26T03:36:26.268Z,1015.87
2023-01-26T03:37:26.284Z,1015.85
2023-01-26T03:38:26.256Z,1015.84
2023-01-26T03:39:26.266Z,1015.87
2023-01-26T03:40:26.243Z,1015.88
2023-01-26T03:41:26.235Z,1015.85
2023-01-26T03:42:26.257Z,1015.82
2023-01-26T03:43:26.198Z,1015.84
2023-01-26T03:44:26.184Z,1015.79
2023-01-26T03:45:26.167Z,1015.81
2023-01-26T03:46:26.228Z,1015.81
2023-01-26T03:47:26.181Z,1015.84
2023-01-26T03:48:26.160Z,1015.77
2023-01-26T03:49:26.124Z,1015.79
2023-01-26T03:50:26.127Z,1015.82
2023-01-26T03:51:26.219Z,1015.77
2023-01-26T03:52:26.098Z,1015.77
2023-01-26T03:53:26.100Z,1015.79
2023-01-26T03:54:26.078Z,1015.83
2023-01-26T03:55:26.095Z,1015.86
2023-01-26T03:56:26.148Z,1015.79
2023-01-26T03:57:26.058Z,1015.78
2023-01-26T03:58:26.042Z,1015.77
2023-01-26T03:59:26.029Z,1015.80
2023-01-26T04:00:26.123Z,1015.75
2023-01-26T04:01:26.005Z,1015.75
2023-01-26T04:02:26.059Z,1015.76
2023-01-26T04:03:25.971Z,1015.75
2023-01-26T04:04:25.970Z,1015.78
2023-01-26T04:05:25.975Z,1015.76
2023-01-26T04:06:25.996Z,1015.78
2023-01-26T04:07:25.934Z,1015.73
2023-01-26T04:08:25.923Z,1015.71
2023-01-26T04:09:25.913Z,1015.68
2023-01-26T04:10:25.925Z,1015.71
2023-01-26T04:11:25.921Z,1015.66
2023-01-26T04:12:25.872Z,1015.68
2023-01-26T04:13:25.869Z,1015.64
2023-01-26T04:14:25.852Z,1015.67
2023-01-26T04:15:25.840Z,1015.62
2023-01-26T04:16:25.888Z,1015.66
2023-01-26T04:17:25.840Z,1015.64
2023-01-26T04:18:25.834Z,1015.63
2023-01-26T04:19:25.805Z,1015.66
2023-01-26T04:20:25.791Z,1015.67
2023-01-26T04:21:25.783Z,1015.70
2023-01-26T04:22:25.759Z,1015.69
2023-01-26T04:23:25.750Z,1015.71
2023-01-26T04:24:25.795Z,1015.65
2023-01-26T04:25:25.737Z,1015.63
2023-01-26T04:26:25.723Z,1015.65
2023-01-26T04:27:25.740Z,1015.62
2023-01-26T04:28:25.701Z,1015.61
2023-01-26T04:29:25.704Z,1015.63
2023-01-26T04:30:25.704Z,1015.60
2023-01-26T04:31:25.705Z,1015.65
2023-01-26T04:32:25.658Z,1015.60
2023-01-26T04:33:25.637Z,1015.59
2023-01-26T04:34:25.639Z,1015.61
2023-01-26T04:35:25.636Z,1015.64
2023-01-26T04:36:25.621Z,1015.67
2023-01-26T04:37:25.612Z,1015.68
2023-01-26T04:38:25.594Z,1015.70
2023-01-26T04:39:25.582Z,1015.67
2023-01-26T04:40:25.557Z,1015.64
2023-01-26T04:41:25.555Z,1015.60
2023-01-26T04:42:25.542Z,1015.62
2023-01-26T04:43:25.568Z,1015.59
2023-01-26T04:44:25.522Z,1015.57
2023-01-26T04:45:25.569Z,1015.59
2023-01-26T04:46:25.493Z,1015.59
2023-01-26T04:47:27.064Z,1015.50
2023-01-26T04:48:25.475Z,1015.48
2023-01-26T04:49:25.461Z,1015.51
2023-01-26T04:50:25.444Z,1015.50
2023-01-26T04:51:25.454Z,1015.49
2023-01-26T04:52:25.435Z,1015.51
2023-01-26T04:53:25.421Z,1015.48
2023-01-26T04:54:25.416Z,1015.57
2023-01-26T04:55:25.429Z,1015.52
2023-01-26T04:56:25.379Z,1015.53
2023-01-26T04:57:25.368Z,1015.53
2023-01-26T04:58:25.371Z,1015.54
2023-01-26T04:59:25.383Z,1015.53
2023-01-26T05:00:25.335Z,1015.53
2023-01-26T05:01:25.409Z,1015.45
2023-01-26T05:02:25.331Z,1015.47
2023-01-26T05:03:25.321Z,1015.48
2023-01-26T05:04:25.346Z,1015.46
2023-01-26T05:05:25.295Z,1015.45
2023-01-26T05:06:25.305Z,1015.54
2023-01-26T05:07:25.293Z,1015.47
2023-01-26T05:08:25.246Z,1015.57
2023-01-26T05:09:25.256Z,1015.52
2023-01-26T05:10:25.222Z,1015.51
2023-01-26T05:11:25.221Z,1015.50
2023-01-26T05:12:25.217Z,1015.45
2023-01-26T05:13:25.197Z,1015.52
2023-01-26T05:14:25.178Z,1015.47
2023-01-26T05:15:25.202Z,1015.50
2023-01-26T05:16:25.267Z,1015.44
2023-01-26T05:17:25.162Z,1015.47
2023-01-26T05:18:25.166Z,1015.46
2023-01-26T05:19:25.124Z,1015.50
2023-01-26T05:20:25.122Z,1015.52
2023-01-26T05:21:25.112Z,1015.48
2023-01-26T05:22:25.090Z,1015.48
2023-01-26T05:23:25.096Z,1015.47
2023-01-26T05:24:25.082Z,1015.43
2023-01-26T05:25:25.073Z,1015.42
2023-01-26T05:26:25.046Z,1015.39
2023-01-26T05:27:25.051Z,1015.40
2023-01-26T05:28:25.053Z,1015.34
2023-01-26T05:29:25.037Z,1015.42
2023-01-26T05:30:25.046Z,1015.42
2023-01-26T05:31:25.081Z,1015.45
2023-01-26T05:32:24.980Z,1015.42
2023-01-26T05:33:24.988Z,1015.43
2023-01-26T05:34:24.966Z,1015.49
2023-01-26T05:35:24.972Z,1015.43
2023-01-26T05:36:24.982Z,1015.49
2023-01-26T05:37:24.929Z,1015.51
2023-01-26T05:38:24.932Z,1015.55
2023-01-26T05:39:24.936Z,1015.53
2023-01-26T05:40:24.938Z,1015.55
2023-01-26T05:41:24.899Z,1015.52
2023-01-26T05:42:24.870Z,1015.53
2023-01-26T05:43:24.860Z,1015.56
2023-01-26T05:44:24.878Z,1015.56
2023-01-26T05:45:24.875Z,1015.55
2023-01-26T05:46:24.843Z,1015.54
2023-01-26T05:47:24.849Z,1015.46
2023-01-26T05:48:24.800Z,1015.51
2023-01-26T05:49:24.827Z,1015.59
2023-01-26T05:50:24.815Z,1015.56
2023-01-26T05:51:24.799Z,1015.60
2023-01-26T05:52:24.754Z,1015.70
2023-01-26T05:53:24.760Z,1015.71
2023-01-26T05:54:24.735Z,1015.67
2023-01-26T05:55:24.726Z,1015.67
2023-01-26T05:56:24.728Z,1015.70
2023-01-26T05:57:24.715Z,1015.67
2023-01-26T05:58:24.711Z,1015.72
2023-01-26T05:59:24.688Z,1015.69
2023-01-26T06:00:24.682Z,1015.70
2023-01-26T06:01:24.691Z,1015.71
2023-01-26T06:02:24.700Z,1015.69
2023-01-26T06:03:24.688Z,1015.76
2023-01-26T06:04:24.701Z,1015.72
2023-01-26T06:05:24.662Z,1015.77
2023-01-26T06:06:24.617Z,1015.71
2023-01-26T06:07:24.598Z,1015.73
2023-01-26T06:08:24.599Z,1015.72
2023-01-26T06:09:27.228Z,1015.70
2023-01-26T06:10:24.575Z,1015.70
2023-01-26T06:11:24.569Z,1015.74
2023-01-26T06:12:24.574Z,1015.74
2023-01-26T06:13:24.572Z,1015.78
2023-01-26T06:14:24.597Z,1015.79
2023-01-26T06:15:24.530Z,1015.78
2023-01-26T06:16:24.559Z,1015.83
2023-01-26T06:17:24.503Z,1015.80
2023-01-26T06:18:24.506Z,1015.82
2023-01-26T06:19:24.504Z,1015.76
2023-01-26T06:20:24.471Z,1015.74
2023-01-26T06:21:24.447Z,1015.75
2023-01-26T06:22:24.458Z,1015.74
2023-01-26T06:23:32.884Z,1015.75
2023-01-26T06:24:24.488Z,1015.79
2023-01-26T06:25:24.443Z,1015.78
2023-01-26T06:26:24.412Z,1015.77
2023-01-26T06:27:24.378Z,1015.78
2023-01-26T06:28:24.416Z,1015.78
2023-01-26T06:29:24.362Z,1015.79
2023-01-26T06:30:24.362Z,1015.78
2023-01-26T06:31:24.614Z,1015.84
2023-01-26T06:32:24.349Z,1015.84
2023-01-26T06:33:24.336Z,1015.84
2023-01-26T06:34:32.591Z,1015.83
2023-01-26T06:35:24.291Z,1015.83
2023-01-26T06:36:24.340Z,1015.79
2023-01-26T06:37:24.299Z,1015.78
2023-01-26T06:38:24.277Z,1015.77
2023-01-26T06:39:24.247Z,1015.80
2023-01-26T06:40:24.237Z,1015.83
2023-01-26T06:41:24.243Z,1015.84
2023-01-26T06:42:24.251Z,1015.80
2023-01-26T06:43:24.226Z,1015.88
2023-01-26T06:44:24.205Z,1015.87
2023-01-26T06:45:24.176Z,1015.86
2023-01-26T06:46:24.310Z,1015.82
2023-01-26T06:47:24.186Z,1015.87
2023-01-26T06:48:24.272Z,1015.89
2023-01-26T06:49:24.141Z,1015.87
2023-01-26T06:50:24.209Z,1015.85
2023-01-26T06:51:24.130Z,1015.83
2023-01-26T06:52:24.149Z,1015.89
2023-01-26T06:53:24.105Z,1015.85
2023-01-26T06:54:24.432Z,1015.88
2023-01-26T06:55:24.093Z,1015.88
2023-01-26T06:56:24.082Z,1015.90
2023-01-26T06:57:24.064Z,1015.91
2023-01-26T06:58:24.052Z,1015.86
2023-01-26T06:59:24.026Z,1015.87
2023-01-26T07:00:24.171Z,1015.91
2023-01-26T07:01:24.111Z,1015.89
2023-01-26T07:02:24.032Z,1015.91
2023-01-26T07:03:23.996Z,1015.91
2023-01-26T07:04:23.993Z,1015.97
2023-01-26T07:05:24.000Z,1015.98
2023-01-26T07:06:23.990Z,1015.96
2023-01-26T07:07:23.987Z,1015.98
2023-01-26T07:08:23.929Z,1016.01
2023-01-26T07:09:23.938Z,1016.02
2023-01-26T07:10:23.908Z,1015.96
2023-01-26T07:11:23.932Z,1016.04
2023-01-26T07:12:23.885Z,1016.03
2023-01-26T07:13:24.054Z,1015.98
2023-01-26T07:14:23.872Z,1015.99
2023-01-26T07:15:23.858Z,1015.99
2023-01-26T07:16:23.946Z,1016.01
2023-01-26T07:17:23.845Z,1016.00
2023-01-26T07:18:23.832Z,1016.06
2023-01-26T07:19:23.806Z,1016.11
2023-01-26T07:20:23.824Z,1016.12
2023-01-26T07:21:23.801Z,1016.12
2023-01-26T07:22:23.818Z,1016.13
2023-01-26T07:23:23.779Z,1016.16
2023-01-26T07:24:23.860Z,1016.14
2023-01-26T07:25:23.756Z,1016.17
2023-01-26T07:26:23.793Z,1016.20
2023-01-26T07:27:23.718Z,1016.16
2023-01-26T07:28:31.541Z,1016.23
2023-01-26T07:29:23.706Z,1016.25
2023-01-26T07:30:23.697Z,1016.23
2023-01-26T07:31:23.842Z,1016.26
2023-01-26T07:32:23.703Z,1016.20
2023-01-26T07:33:23.658Z,1016.14
2023-01-26T07:34:23.674Z,1016.12
2023-01-26T07:35:23.636Z,1016.15
2023-01-26T07:36:23.605Z,1016.17
2023-01-26T07:37:23.608Z,1016.23
2023-01-26T07:38:23.621Z,1016.15
2023-01-26T07:39:23.613Z,1016.23
2023-01-26T07:40:23.588Z,1016.26
2023-01-26T07:41:23.570Z,1016.21
2023-01-26T07:42:23.572Z,1016.16
2023-01-26T07:43:23.542Z,1016.20
2023-01-26T07:44:23.555Z,1016.17
2023-01-26T07:45:23.518Z,1016.14
2023-01-26T07:46:24.036Z,1016.20
2023-01-26T07:47:23.518Z,1016.22
2023-01-26T07:48:23.645Z,1016.21
2023-01-26T07:49:23.480Z,1016.14
2023-01-26T07:50:23.465Z,1016.21
2023-01-26T07:51:23.499Z,1016.19
2023-01-26T07:52:23.460Z,1016.15
2023-01-26T07:53:23.425Z,1016.14
2023-01-26T07:54:23.464Z,1016.13
2023-01-26T07:55:24.641Z,1016.22
2023-01-26T07:56:23.395Z,1016.15
2023-01-26T07:57:23.441Z,1016.14
2023-01-26T07:58:23.402Z,1016.17
2023-01-26T07:59:23.387Z,1016.17
2023-01-26T08:00:23.366Z,1016.15
2023-01-26T08:01:23.519Z,1016.14
2023-01-26T08:02:23.903Z,1016.12
2023-01-26T08:03:23.324Z,1016.08
2023-01-26T08:04:23.304Z,1016.04
2023-01-26T08:05:23.376Z,1016.08
2023-01-26T08:06:23.309Z,1016.07
2023-01-26T08:07:23.323Z,1016.09
2023-01-26T08:08:23.273Z,1016.09
2023-01-26T08:09:23.243Z,1016.08
2023-01-26T08:10:23.269Z,1016.11
2023-01-26T08:11:23.246Z,1016.14
2023-01-26T08:12:23.232Z,1016.05
2023-01-26T08:13:34.368Z,1016.07
2023-01-26T08:14:24.200Z,1016.04
2023-01-26T08:15:23.179Z,1015.99
2023-01-26T08:16:23.282Z,1016.04
2023-01-26T08:17:23.189Z,1016.03
2023-01-26T08:18:23.165Z,1016.00
2023-01-26T08:19:23.239Z,1015.95
2023-01-26T08:20:23.120Z,1015.99
2023-01-26T08:21:23.186Z,1015.99
2023-01-26T08:22:23.297Z,1015.98
2023-01-26T08:23:23.110Z,1015.95
2023-01-26T08:24:23.184Z,1015.97
2023-01-26T08:25:23.138Z,1015.96
2023-01-26T08:26:23.228Z,1015.98
2023-01-26T08:27:23.145Z,1016.03
2023-01-26T08:28:23.159Z,1015.98
2023-01-26T08:29:23.057Z,1016.05
2023-01-26T08:30:23.058Z,1016.04
2023-01-26T08:31:23.123Z,1016.02
2023-01-26T08:32:23.014Z,1016.00
2023-01-26T08:33:22.989Z,1016.07
2023-01-26T08:34:23.036Z,1016.01
2023-01-26T08:35:22.979Z,1016.03
2023-01-26T08:36:23.224Z,1016.03
2023-01-26T08:37:22.981Z,1016.03
2023-01-26T08:38:22.967Z,1016.02
2023-01-26T08:39:22.935Z,1016.07
2023-01-26T08:40:22.918Z,1016.02
2023-01-26T08:41:22.940Z,1016.12
2023-01-26T08:42:23.034Z,1016.13
2023-01-26T08:43:22.881Z,1016.08
2023-01-26T08:44:22.868Z,1016.07
2023-01-26T08:45:23.015Z,1016.10
2023-01-26T08:46:22.851Z,1016.06
2023-01-26T08:47:22.835Z,1016.07
2023-01-26T08:48:22.817Z,1016.13
2023-01-26T08:49:23.018Z,1016.16
2023-01-26T08:50:22.827Z,1016.16
2023-01-26T08:51:22.780Z,1016.18
2023-01-26T08:52:22.767Z,1016.21
2023-01-26T08:53:22.822Z,1016.27
2023-01-26T08:54:22.782Z,1016.25
2023-01-26T08:55:22.756Z,1016.27
2023-01-26T08:56:22.730Z,1016.30
2023-01-26T08:57:22.716Z,1016.30
2023-01-26T08:58:22.732Z,1016.32
2023-01-26T08:59:22.713Z,1016.30
2023-01-26T09:00:22.711Z,1016.32
2023-01-26T09:01:23.077Z,1016.38
2023-01-26T09:02:22.764Z,1016.35
2023-01-26T09:03:22.722Z,1016.32
2023-01-26T09:04:22.640Z,1016.27
2023-01-26T09:05:22.647Z,1016.28
2023-01-26T09:06:22.615Z,1016.24
2023-01-26T09:07:22.635Z,1016.27
2023-01-26T09:08:22.622Z,1016.24
2023-01-26T09:09:22.673Z,1016.24
2023-01-26T09:10:22.582Z,1016.24
2023-01-26T09:11:22.555Z,1016.21
2023-01-26T09:12:22.625Z,1016.18
2023-01-26T09:13:22.563Z,1016.18
2023-01-26T09:14:22.661Z,1016.21
2023-01-26T09:15:22.518Z,1016.19
2023-01-26T09:16:22.570Z,1016.23
2023-01-26T09:17:22.510Z,1016.21
2023-01-26T09:18:22.492Z,1016.16
2023-01-26T09:19:22.500Z,1016.20
2023-01-26T09:20:22.462Z,1016.25
2023-01-26T09:21:22.486Z,1016.23
2023-01-26T09:22:22.485Z,1016.22
2023-01-26T09:23:22.429Z,1016.23
2023-01-26T09:24:22.570Z,1016.21
2023-01-26T09:25:22.407Z,1016.24
2023-01-26T09:26:22.485Z,1016.23
2023-01-26T09:27:22.402Z,1016.22
2023-01-26T09:28:22.368Z,1016.23
2023-01-26T09:29:22.438Z,1016.27
2023-01-26T09:30:22.465Z,1016.29
2023-01-26T09:31:22.421Z,1016.33
2023-01-26T09:32:22.337Z,1016.32
2023-01-26T09:33:22.335Z,1016.35
2023-01-26T09:34:22.313Z,1016.33
2023-01-26T09:35:22.347Z,1016.35
2023-01-26T09:36:22.314Z,1016.38
2023-01-26T09:37:22.274Z,1016.39
2023-01-26T09:38:22.292Z,1016.40
2023-01-26T09:39:22.268Z,1016.42
2023-01-26T09:40:22.304Z,1016.39
2023-01-26T09:41:22.240Z,1016.42
2023-01-26T09:42:22.232Z,1016.40
2023-01-26T09:43:22.211Z,1016.42
2023-01-26T09:44:22.209Z,1016.45
2023-01-26T09:45:22.210Z,1016.41
2023-01-26T09:46:22.266Z,1016.39
2023-01-26T09:47:22.157Z,1016.42
2023-01-26T09:48:25.159Z,1016.44
2023-01-26T09:49:22.182Z,1016.47
2023-01-26T09:50:22.179Z,1016.37
2023-01-26T09:51:22.144Z,1016.48
2023-01-26T09:52:22.144Z,1016.47
2023-01-26T09:53:22.104Z,1016.48
2023-01-26T09:54:22.080Z,1016.44
2023-01-26T09:55:22.457Z,1016.43
2023-01-26T09:56:22.140Z,1016.49
2023-01-26T09:57:22.070Z,1016.49
2023-01-26T09:58:22.060Z,1016.51
2023-01-26T09:59:22.034Z,1016.47
2023-01-26T10:00:22.004Z,1016.44
2023-01-26T10:01:23.094Z,1016.47
2023-01-26T10:02:22.166Z,1016.46
2023-01-26T10:03:22.011Z,1016.53
2023-01-26T10:04:22.013Z,1016.48
2023-01-26T10:05:21.983Z,1016.44
2023-01-26T10:06:21.990Z,1016.46
2023-01-26T10:07:22.021Z,1016.46
2023-01-26T10:08:21.955Z,1016.44
2023-01-26T10:09:21.953Z,1016.47
2023-01-26T10:10:21.919Z,1016.43
2023-01-26T10:11:21.878Z,1016.40
2023-01-26T10:12:21.997Z,1016.37
2023-01-26T10:13:21.858Z,1016.43
2023-01-26T10:14:21.879Z,1016.41
2023-01-26T10:15:21.862Z,1016.42
2023-01-26T10:16:21.873Z,1016.40
2023-01-26T10:17:21.838Z,1016.40
2023-01-26T10:18:21.835Z,1016.41
2023-01-26T10:19:21.833Z,1016.40
2023-01-26T10:20:21.833Z,1016.38
2023-01-26T10:21:21.808Z,1016.34
2023-01-26T10:22:21.765Z,1016.40
2023-01-26T10:23:21.762Z,1016.37
2023-01-26T10:24:21.887Z,1016.36
2023-01-26T10:25:22.296Z,1016.33
2023-01-26T10:26:21.774Z,1016.29
2023-01-26T10:27:21.794Z,1016.33
2023-01-26T10:28:21.726Z,1016.30
2023-01-26T10:29:21.704Z,1016.35
2023-01-26T10:30:21.735Z,1016.27
2023-01-26T10:31:22.099Z,1016.28
2023-01-26T10:32:21.644Z,1016.30
2023-01-26T10:33:21.650Z,1016.23
2023-01-26T10:34:21.663Z,1016.21
2023-01-26T10:35:21.607Z,1016.23
2023-01-26T10:36:21.659Z,1016.18
2023-01-26T10:37:21.595Z,1016.15
2023-01-26T10:38:21.579Z,1016.13
2023-01-26T10:39:21.601Z,1016.11
2023-01-26T10:40:21.619Z,1016.08
2023-01-26T10:41:21.582Z,1016.13
2023-01-26T10:42:21.925Z,1016.09
2023-01-26T10:43:21.530Z,1016.06
2023-01-26T10:44:21.523Z,1016.06
2023-01-26T10:45:21.502Z,1016.08
2023-01-26T10:46:21.591Z,1016.10
2023-01-26T10:47:21.574Z,1016.13
2023-01-26T10:48:21.506Z,1016.12
2023-01-26T10:49:21.468Z,1016.08
2023-01-26T10:50:21.490Z,1016.07
2023-01-26T10:51:21.445Z,1016.05
2023-01-26T10:52:21.476Z,1016.07
2023-01-26T10:53:21.430Z,1016.07
2023-01-26T10:54:21.412Z,1016.09
2023-01-26T10:55:21.427Z,1016.07
2023-01-26T10:56:21.377Z,1016.04
2023-01-26T10:57:21.403Z,1016.07
2023-01-26T10:58:21.370Z,1016.10
2023-01-26T10:59:21.393Z,1016.09
2023-01-26T11:00:21.365Z,1016.08
2023-01-26T11:01:21.335Z,1016.03
2023-01-26T11:02:21.352Z,1016.06
2023-01-26T11:03:21.368Z,1016.06
2023-01-26T11:04:21.379Z,1016.05
2023-01-26T11:05:21.369Z,1016.04
2023-01-26T11:06:21.311Z,1016.02
2023-01-26T11:07:21.268Z,1015.97
2023-01-26T11:08:21.305Z,1015.92
2023-01-26T11:09:21.239Z,1015.91
2023-01-26T11:10:21.233Z,1015.90
2023-01-26T11:11:21.214Z,1015.90
2023-01-26T11:12:21.868Z,1015.91
2023-01-26T11:13:21.210Z,1015.93
2023-01-26T11:14:21.204Z,1015.88
2023-01-26T11:15:21.259Z,1015.86
2023-01-26T11:16:21.190Z,1015.85
2023-01-26T11:17:21.169Z,1015.86
2023-01-26T11:18:21.178Z,1015.84
2023-01-26T11:19:21.120Z,1015.83
2023-01-26T11:20:21.133Z,1015.76
2023-01-26T11:21:21.911Z,1015.71
2023-01-26T11:22:21.241Z,1015.71
2023-01-26T11:23:21.078Z,1015.69
2023-01-26T11:24:21.149Z,1015.71
2023-01-26T11:25:21.095Z,1015.67
2023-01-26T11:26:21.147Z,1015.67
2023-01-26T11:27:21.084Z,1015.70
2023-01-26T11:28:21.030Z,1015.65
2023-01-26T11:29:21.901Z,1015.62
2023-01-26T11:30:21.076Z,1015.59
2023-01-26T11:31:21.034Z,1015.58
2023-01-26T11:32:20.981Z,1015.60
2023-01-26T11:33:21.054Z,1015.58
2023-01-26T11:34:20.974Z,1015.56
2023-01-26T11:35:20.978Z,1015.60
2023-01-26T11:36:20.954Z,1015.60
2023-01-26T11:37:20.938Z,1015.60
2023-01-26T11:38:20.975Z,1015.61
2023-01-26T11:39:20.914Z,1015.62
2023-01-26T11:40:20.884Z,1015.60
2023-01-26T11:41:20.875Z,1015.55
2023-01-26T11:42:20.896Z,1015.53
2023-01-26T11:43:20.867Z,1015.54
2023-01-26T11:44:20.857Z,1015.51
2023-01-26T11:45:20.824Z,1015.47
2023-01-26T11:46:20.817Z,1015.47
2023-01-26T11:47:20.819Z,1015.53
2023-01-26T11:48:20.803Z,1015.51
2023-01-26T11:49:20.807Z,1015.48
2023-01-26T11:50:20.795Z,1015.49
2023-01-26T11:51:21.408Z,1015.49
2023-01-26T11:52:20.755Z,1015.46
2023-01-26T11:53:20.839Z,1015.54
2023-01-26T11:54:20.755Z,1015.49
2023-01-26T11:55:20.753Z,1015.48
2023-01-26T11:56:20.781Z,1015.50
2023-01-26T11:57:20.707Z,1015.48
2023-01-26T11:58:20.691Z,1015.49
2023-01-26T11:59:20.683Z,1015.43
2023-01-26T12:00:29.482Z,1015.43
2023-01-26T12:01:21.676Z,1015.36
2023-01-26T12:02:20.678Z,1015.41
2023-01-26T12:03:20.704Z,1015.38
2023-01-26T12:04:20.616Z,1015.40
2023-01-26T12:05:21.395Z,1015.39